createdAt,value
2022-11-29T00:13:52.747Z,6.56
2022-11-29T00:19:01.774Z,6.56
2022-11-29T00:24:10.672Z,6.56
2022-11-29T00:29:19.676Z,6.56
2022-11-29T00:34:28.659Z,6.56
2022-11-29T00:39:37.739Z,6.56
2022-11-29T00:44:46.685Z,6.56
2022-11-29T00:49:55.610Z,6.56
2022-11-29T00:55:04.661Z,6.56
2022-11-29T01:00:13.517Z,6.56
2022-11-29T01:05:22.568Z,6.56
2022-11-29T01:10:31.826Z,6.56
2022-11-29T01:15:40.784Z,6.56
2022-11-29T01:35:44.145Z,6.62
2022-11-29T01:40:53.199Z,6.62
2022-11-29T01:46:02.269Z,6.62
2022-11-29T01:51:11.215Z,6.62
2022-11-29T01:56:20.202Z,6.62
2022-11-29T02:01:29.198Z,6.62
2022-11-29T02:06:38.208Z,6.62
2022-11-29T02:11:47.208Z,6.62
2022-11-29T02:16:56.740Z,6.62
2022-11-29T02:22:05.021Z,6.62
2022-11-29T02:27:14.097Z,6.62
2022-11-29T02:37:21.211Z,6.62
2022-11-29T02:42:30.112Z,6.69
2022-11-29T02:47:39.204Z,6.69
2022-11-29T02:52:48.011Z,6.69
2022-11-29T02:57:56.859Z,6.69
2022-11-29T03:03:05.803Z,6.69
2022-11-29T03:13:13.012Z,6.69
2022-11-29T03:18:22.294Z,6.75
2022-11-29T03:23:31.155Z,6.75
2022-11-29T03:28:40.244Z,6.75
2022-11-29T03:33:49.233Z,6.75
2022-11-29T03:38:58.135Z,6.75
2022-11-29T03:49:16.026Z,6.75
2022-11-29T03:54:24.944Z,6.75
2022-11-29T03:59:33.912Z,6.75
2022-11-29T04:04:43.381Z,6.75
2022-11-29T04:09:52.003Z,6.75
2022-11-29T04:15:01.011Z,6.75
2022-11-29T04:20:09.984Z,6.75
2022-11-29T04:25:19.044Z,6.75
2022-11-29T04:30:28.028Z,6.75
2022-11-29T04:35:37.024Z,6.75
2022-11-29T04:40:46.226Z,6.75
2022-11-29T04:45:55.063Z,6.75
2022-11-29T04:51:04.169Z,6.75
2022-11-29T04:56:13.089Z,6.75
2022-11-29T05:01:22.062Z,6.75
2022-11-29T05:06:31.049Z,6.69
2022-11-29T05:11:39.944Z,6.69
2022-11-29T05:16:48.952Z,6.69
2022-11-29T05:21:58.067Z,6.69
2022-11-29T05:42:34.353Z,6.56
2022-11-29T05:47:43.397Z,6.5
2022-11-29T05:52:52.313Z,6.5
2022-11-29T05:58:01.238Z,6.44
2022-11-29T06:03:10.311Z,6.44
2022-11-29T06:08:19.333Z,6.44
2022-11-29T06:13:28.430Z,6.44
2022-11-29T06:18:37.420Z,6.44
2022-11-29T06:23:46.487Z,6.5
2022-11-29T06:28:55.498Z,6.44
2022-11-29T06:34:04.418Z,6.44
2022-11-29T06:39:13.451Z,6.44
2022-11-29T06:44:22.334Z,6.37
2022-11-29T06:49:31.330Z,6.37
2022-11-29T06:54:40.400Z,6.44
2022-11-29T06:59:49.529Z,6.5
2022-11-29T07:10:10.652Z,6.5
2022-11-29T07:15:16.243Z,6.56
2022-11-29T07:20:25.285Z,6.56
2022-11-29T07:30:32.574Z,6.62
2022-11-29T07:35:41.525Z,6.56
2022-11-29T07:40:50.465Z,6.56
2022-11-29T07:45:59.521Z,6.62
2022-11-29T07:51:08.483Z,6.69
2022-11-29T07:56:17.426Z,6.69
2022-11-29T08:01:26.472Z,6.69
2022-11-29T08:06:35.398Z,6.69
2022-11-29T08:11:44.438Z,6.75
2022-11-29T08:16:53.779Z,6.75
2022-11-29T08:22:03.021Z,6.75
2022-11-29T08:27:12.058Z,6.81
2022-11-29T08:32:21.325Z,6.94
2022-11-29T08:37:30.314Z,7.12
2022-11-29T08:42:39.338Z,7.19
2022-11-29T08:47:48.524Z,7.25
2022-11-29T08:52:57.575Z,7.31
2022-11-29T08:58:06.561Z,7.44
2022-11-29T09:03:15.594Z,7.44
2022-11-29T09:08:24.689Z,7.5
2022-11-29T09:13:33.823Z,7.44
2022-11-29T09:18:44.864Z,7.37
2022-11-29T09:29:00.627Z,7.37
2022-11-29T09:34:09.789Z,7.5
2022-11-29T09:59:22.110Z,7.5
2022-11-29T10:04:31.274Z,7.56
2022-11-29T10:14:49.244Z,7.62
2022-11-29T10:19:58.266Z,7.75
2022-11-29T10:25:07.275Z,7.87
2022-11-29T10:30:16.402Z,7.87
2022-11-29T10:35:25.357Z,7.94
2022-11-29T10:40:34.459Z,7.87
2022-11-29T10:45:43.506Z,7.94
2022-11-29T10:50:52.430Z,8.06
2022-11-29T10:56:01.421Z,8.13
2022-11-29T11:01:10.448Z,8.19
2022-11-29T11:06:19.481Z,8.25
2022-11-29T11:11:28.489Z,8.31
2022-11-29T11:16:37.978Z,8.44
2022-11-29T11:21:46.655Z,8.44
2022-11-29T11:32:04.606Z,8.38
2022-11-29T11:37:13.701Z,8.44
2022-11-29T11:42:22.697Z,8.56
2022-11-29T11:47:31.718Z,8.56
2022-11-29T11:52:43.804Z,8.63
2022-11-29T11:57:49.829Z,8.63
2022-11-29T12:03:01.043Z,8.56
2022-11-29T12:08:09.920Z,8.44
2022-11-29T12:13:18.625Z,8.31
2022-11-29T12:23:36.892Z,8.31
2022-11-29T12:43:41.135Z,8.19
2022-11-29T12:48:50.102Z,8.31
2022-11-29T12:53:59.208Z,8.38
2022-11-29T12:59:08.389Z,8.31
2022-11-29T13:04:20.327Z,8.25
2022-11-29T13:09:29.428Z,8.31
2022-11-29T13:14:43.304Z,8.31
2022-11-29T13:19:47.332Z,8.38
2022-11-29T13:34:52.688Z,8.25
2022-11-29T13:40:01.611Z,8.19
2022-11-29T13:45:10.655Z,8.13
2022-11-29T13:50:19.667Z,8.19
2022-11-29T14:00:40.800Z,8.06
2022-11-29T14:05:50.155Z,8.13
2022-11-29T14:10:59.097Z,8.06
2022-11-29T14:16:08.120Z,8.06
2022-11-29T14:21:17.123Z,8
2022-11-29T14:41:19.968Z,7.87
2022-11-29T14:46:29.700Z,7.87
2022-11-29T15:06:32.657Z,7.75
2022-11-29T15:11:41.673Z,7.75
2022-11-29T15:16:50.812Z,7.69
2022-11-29T15:21:59.871Z,7.69
2022-11-29T15:27:08.945Z,7.62
2022-11-29T15:32:20.784Z,7.62
2022-11-29T15:37:29.844Z,7.62
2022-11-29T15:42:38.891Z,7.62
2022-11-29T15:47:47.831Z,7.62
2022-11-29T15:52:56.770Z,7.56
2022-11-29T15:58:08.839Z,7.62
2022-11-29T16:03:14.625Z,7.62
2022-11-29T16:08:23.654Z,7.62
2022-11-29T16:18:30.707Z,7.56
2022-11-29T16:23:39.807Z,7.56
2022-11-29T16:28:48.508Z,7.56
2022-11-29T16:33:57.529Z,7.56
2022-11-29T16:39:06.626Z,7.56
2022-11-29T16:44:15.477Z,7.56
2022-11-29T16:49:27.417Z,7.5
2022-11-29T16:54:36.361Z,7.44
2022-11-29T16:59:45.351Z,7.37
2022-11-29T17:04:54.368Z,7.44
2022-11-29T17:10:03.418Z,7.44
2022-11-29T17:15:12.388Z,7.44
2022-11-29T17:20:21.392Z,7.37
2022-11-29T17:25:30.456Z,7.31
2022-11-29T17:30:39.272Z,7.31
2022-11-29T17:35:48.363Z,7.31
2022-11-29T17:40:57.387Z,7.31
2022-11-29T17:46:06.346Z,7.31
2022-11-29T17:51:43.499Z,7.31
2022-11-29T17:56:24.516Z,7.37
2022-11-29T18:01:33.544Z,7.31
2022-11-29T18:06:42.475Z,7.31
2022-11-29T18:11:51.561Z,7.31
2022-11-29T18:21:58.816Z,7.25
2022-11-29T18:37:03.769Z,7
2022-11-29T18:42:12.912Z,6.87
2022-11-29T18:47:21.823Z,6.81
2022-11-29T18:52:30.903Z,6.69
2022-11-29T18:57:39.881Z,6.69
2022-11-29T19:02:48.889Z,6.75
2022-11-29T19:07:57.897Z,6.75
2022-11-29T19:13:06.895Z,6.81
2022-11-29T19:18:15.727Z,6.81
2022-11-29T19:23:24.838Z,6.75
2022-11-29T19:33:32.040Z,6.75
2022-11-29T19:38:40.999Z,6.69
2022-11-29T19:43:49.762Z,6.69
2022-11-29T19:48:58.714Z,6.75
2022-11-29T19:54:07.741Z,6.69
2022-11-29T19:59:16.581Z,6.62
2022-11-29T20:04:25.632Z,6.62
2022-11-29T20:09:34.424Z,6.56
2022-11-29T20:14:43.292Z,6.44
2022-11-29T20:19:52.604Z,6.25
2022-11-29T20:25:01.581Z,6.25
2022-11-29T20:30:10.403Z,6.25
2022-11-29T20:35:19.402Z,6.12
2022-11-29T20:40:28.647Z,5.94
2022-11-29T20:45:37.604Z,5.81
2022-11-29T20:50:46.522Z,5.81
2022-11-29T20:55:59.117Z,5.69
2022-11-29T21:01:08.290Z,5.69
2022-11-29T21:06:17.219Z,5.62
2022-11-29T21:11:26.248Z,5.62
2022-11-29T21:16:35.244Z,5.69
2022-11-29T21:21:44.423Z,5.81
2022-11-29T21:26:53.390Z,5.94
2022-11-29T21:32:02.286Z,6
2022-11-29T21:37:11.226Z,5.94
2022-11-29T21:42:20.214Z,5.94
2022-11-29T21:47:29.163Z,5.94
2022-11-29T21:52:38.278Z,5.94
2022-11-29T22:02:45.460Z,6.06
2022-11-29T22:07:54.465Z,6.12
2022-11-29T22:13:03.442Z,6.12
2022-11-29T22:18:12.411Z,6.19
2022-11-29T22:28:19.424Z,6.37
2022-11-29T22:33:28.554Z,6.37
2022-11-29T22:38:37.534Z,6.37
2022-11-29T22:43:46.444Z,6.37
2022-11-29T22:48:55.540Z,6.31
2022-11-29T22:54:04.558Z,6.37
2022-11-29T22:59:13.607Z,6.31
2022-11-29T23:04:22.739Z,6.37
2022-11-29T23:09:31.679Z,6.31
2022-11-29T23:14:40.576Z,6.31
2022-11-29T23:19:49.693Z,6.31
2022-11-29T23:24:58.558Z,6.31
2022-11-29T23:30:07.551Z,6.31
2022-11-29T23:50:11.646Z,6.31
